createdAt,value
2023-04-16T00:00:55.993Z,4.55
2023-04-16T00:03:23.557Z,6.80
2023-04-16T00:05:50.673Z,9.38
2023-04-16T00:08:17.504Z,3.45
2023-04-16T00:10:44.611Z,8.18
2023-04-16T00:13:11.625Z,5.97
2023-04-16T00:15:39.966Z,5.82
2023-04-16T00:18:06.972Z,5.28
2023-04-16T00:20:33.933Z,7.13
2023-04-16T00:23:00.976Z,6.97
2023-04-16T00:25:28.070Z,5.55
2023-04-16T00:27:55.184Z,7.80
2023-04-16T00:30:22.528Z,4.70
2023-04-16T00:32:50.897Z,6.38
2023-04-16T00:35:18.016Z,4.35
2023-04-16T00:37:44.861Z,6.10
2023-04-16T00:40:12.211Z,7.55
2023-04-16T00:42:39.275Z,6.80
2023-04-16T00:45:07.254Z,7.05
2023-04-16T00:47:34.380Z,5.13
2023-04-16T00:50:02.986Z,5.03
2023-04-16T00:52:30.181Z,5.88
2023-04-16T00:54:57.215Z,5.55
2023-04-16T00:57:24.154Z,8.65
2023-04-16T00:59:51.058Z,6.75
2023-04-16T01:02:18.108Z,5.40
2023-04-16T01:04:45.031Z,4.20
2023-04-16T01:07:13.230Z,6.18
2023-04-16T01:09:40.090Z,6.15
2023-04-16T01:12:06.922Z,4.25
2023-04-16T01:14:33.789Z,5.72
2023-04-16T01:17:00.655Z,6.13
2023-04-16T01:19:27.508Z,4.97
2023-04-16T01:21:55.725Z,6.82
2023-04-16T01:24:22.606Z,4.80
2023-04-16T01:26:49.453Z,5.18
2023-04-16T01:29:16.320Z,4.55
2023-04-16T01:31:43.275Z,7.43
2023-04-16T01:34:10.143Z,5.20
2023-04-16T01:36:36.981Z,2.92
2023-04-16T01:39:05.234Z,5.75
2023-04-16T01:41:32.195Z,4.97
2023-04-16T01:43:59.054Z,5.82
2023-04-16T01:46:28.078Z,6.20
2023-04-16T01:48:54.975Z,3.83
2023-04-16T01:51:21.878Z,4.22
2023-04-16T01:53:49.548Z,4.65
2023-04-16T01:56:17.795Z,3.85
2023-04-16T01:58:44.686Z,4.70
2023-04-16T02:01:11.689Z,5.30
2023-04-16T02:03:38.825Z,5.15
2023-04-16T02:06:05.829Z,6.43
2023-04-16T02:08:32.698Z,3.38
2023-04-16T02:11:00.960Z,7.60
2023-04-16T02:13:29.450Z,7.43
2023-04-16T02:15:56.338Z,5.80
2023-04-16T02:18:23.251Z,4.05
2023-04-16T02:20:50.129Z,5.53
2023-04-16T02:23:17.021Z,6.72
2023-04-16T02:25:44.811Z,3.90
2023-04-16T02:28:12.463Z,3.85
2023-04-16T02:30:40.798Z,5.40
2023-04-16T02:33:08.378Z,3.03
2023-04-16T02:35:35.253Z,4.43
2023-04-16T02:38:02.460Z,2.97
2023-04-16T02:40:29.380Z,3.75
2023-04-16T02:42:56.242Z,4.40
2023-04-16T02:45:23.186Z,3.90
2023-04-16T02:47:51.450Z,3.92
2023-04-16T02:50:18.507Z,4.18
2023-04-16T02:52:45.427Z,3.75
2023-04-16T02:55:12.354Z,3.20
2023-04-16T02:57:39.229Z,2.97
2023-04-16T03:00:07.428Z,3.55
2023-04-16T03:02:34.347Z,3.65
2023-04-16T03:05:02.788Z,4.57
2023-04-16T03:07:29.669Z,4.28
2023-04-16T03:09:56.556Z,2.92
2023-04-16T03:12:23.420Z,4.30
2023-04-16T03:14:50.853Z,2.97
2023-04-16T03:17:17.787Z,6.05
2023-04-16T03:19:44.690Z,5.53
2023-04-16T03:22:12.984Z,3.15
2023-04-16T03:24:39.901Z,4.43
2023-04-16T03:27:06.738Z,3.55
2023-04-16T03:29:33.629Z,3.45
2023-04-16T03:32:00.487Z,5.30
2023-04-16T03:34:27.316Z,2.97
2023-04-16T03:36:54.162Z,3.92
2023-04-16T03:39:22.399Z,6.18
2023-04-16T03:41:49.273Z,3.15
2023-04-16T03:44:16.121Z,4.38
2023-04-16T03:46:42.993Z,4.28
2023-04-16T03:49:10.032Z,3.53
2023-04-16T03:51:36.955Z,3.63
2023-04-16T03:54:03.952Z,5.15
2023-04-16T03:56:32.198Z,3.47
2023-04-16T03:58:59.070Z,3.25
2023-04-16T04:01:25.909Z,3.58
2023-04-16T04:03:52.930Z,2.83
2023-04-16T04:06:19.894Z,3.25
2023-04-16T04:08:46.764Z,5.45
2023-04-16T04:11:13.626Z,4.63
2023-04-16T04:13:41.963Z,5.70
2023-04-16T04:16:08.858Z,4.50
2023-04-16T04:18:35.772Z,5.50
2023-04-16T04:21:05.819Z,3.03
2023-04-16T04:23:32.683Z,2.08
2023-04-16T04:25:59.590Z,3.47
2023-04-16T04:28:26.457Z,4.22
2023-04-16T04:30:54.701Z,3.90
2023-04-16T04:33:21.587Z,4.65
2023-04-16T04:35:48.450Z,3.25
2023-04-16T04:38:16.209Z,3.95
2023-04-16T04:40:43.168Z,2.80
2023-04-16T04:43:10.030Z,2.65
2023-04-16T04:45:36.930Z,2.63
2023-04-16T04:48:05.429Z,2.42
2023-04-16T04:50:32.353Z,2.67
2023-04-16T04:52:59.219Z,2.45
2023-04-16T04:55:26.169Z,3.33
2023-04-16T04:57:53.023Z,3.30
2023-04-16T05:00:19.929Z,3.53
2023-04-16T05:02:46.918Z,4.10
2023-04-16T05:05:15.281Z,4.38
2023-04-16T05:07:42.161Z,3.55
2023-04-16T05:10:09.776Z,5.63
2023-04-16T05:12:36.651Z,2.72
2023-04-16T05:15:03.732Z,2.60
2023-04-16T05:17:30.615Z,2.00
2023-04-16T05:19:57.519Z,2.72
2023-04-16T05:22:25.747Z,4.70
2023-04-16T05:24:52.616Z,2.72
2023-04-16T05:27:19.462Z,3.42
2023-04-16T05:29:46.338Z,2.70
2023-04-16T05:32:13.232Z,1.77
2023-04-16T05:34:40.090Z,2.58
2023-04-16T05:37:06.956Z,2.58
2023-04-16T05:39:35.198Z,1.67
2023-04-16T05:42:02.058Z,2.90
2023-04-16T05:44:28.913Z,2.03
2023-04-16T05:46:55.771Z,3.20
2023-04-16T05:49:22.634Z,3.08
2023-04-16T05:51:50.831Z,1.70
2023-04-16T05:54:17.936Z,3.63
2023-04-16T05:56:46.209Z,1.13
2023-04-16T05:59:13.053Z,2.58
2023-04-16T06:01:39.900Z,2.70
2023-04-16T06:04:06.895Z,3.30
2023-04-16T06:06:33.841Z,4.55
2023-04-16T06:09:00.705Z,4.43
2023-04-16T06:11:27.592Z,2.05
2023-04-16T06:13:55.841Z,2.85
2023-04-16T06:16:22.744Z,3.08
2023-04-16T06:18:49.625Z,3.25
2023-04-16T06:21:16.487Z,3.15
2023-04-16T06:23:43.324Z,2.47
2023-04-16T06:26:11.092Z,3.13
2023-04-16T06:28:37.930Z,3.47
2023-04-16T06:31:06.226Z,3.55
2023-04-16T06:33:33.131Z,2.83
2023-04-16T06:35:59.975Z,1.50
2023-04-16T06:38:26.852Z,1.25
2023-04-16T06:40:53.736Z,1.83
2023-04-16T06:43:20.602Z,1.73
2023-04-16T06:45:47.462Z,2.63
2023-04-16T06:48:15.742Z,0.90
2023-04-16T06:50:42.629Z,2.15
2023-04-16T06:53:09.472Z,1.83
2023-04-16T06:55:36.315Z,1.05
2023-04-16T06:58:03.226Z,3.30
2023-04-16T07:00:30.078Z,2.35
2023-04-16T07:02:58.600Z,1.30
2023-04-16T07:05:27.042Z,1.30
2023-04-16T07:07:53.918Z,1.33
2023-04-16T07:10:20.780Z,3.13
2023-04-16T07:12:47.635Z,1.85
2023-04-16T07:15:14.554Z,1.70
2023-04-16T07:17:41.417Z,1.23
2023-04-16T07:20:09.391Z,2.03
2023-04-16T07:22:37.642Z,3.00
2023-04-16T07:25:05.059Z,2.20
2023-04-16T07:27:31.920Z,2.20
2023-04-16T07:29:58.818Z,1.65
2023-04-16T07:32:25.725Z,3.33
2023-04-16T07:34:52.625Z,1.05
2023-04-16T07:37:19.525Z,1.48
2023-04-16T07:39:47.751Z,1.10
2023-04-16T07:42:14.620Z,1.30
2023-04-16T07:44:41.475Z,2.10
2023-04-16T07:47:08.347Z,4.32
2023-04-16T07:49:35.198Z,1.13
2023-04-16T07:52:02.321Z,2.95
2023-04-16T07:54:29.312Z,2.15
2023-04-16T07:56:57.588Z,3.45
2023-04-16T07:59:24.731Z,1.38
2023-04-16T08:01:52.792Z,3.47
2023-04-16T08:04:19.833Z,1.33
2023-04-16T08:06:46.799Z,1.40
2023-04-16T08:09:13.632Z,1.73
2023-04-16T08:11:40.457Z,2.53
2023-04-16T08:14:08.699Z,1.25
2023-04-16T08:16:35.565Z,1.35
2023-04-16T08:19:02.438Z,1.63
2023-04-16T08:21:29.301Z,1.27
2023-04-16T08:23:56.186Z,1.10
2023-04-16T08:26:23.067Z,1.42
2023-04-16T08:28:49.936Z,1.20
2023-04-16T08:31:18.220Z,2.78
2023-04-16T08:33:45.114Z,1.33
2023-04-16T08:36:11.969Z,1.25
2023-04-16T08:38:38.811Z,2.03
2023-04-16T08:41:06.893Z,1.25
2023-04-16T08:43:34.452Z,0.95
2023-04-16T08:46:01.307Z,1.55
2023-04-16T08:48:29.682Z,1.30
2023-04-16T08:50:56.551Z,2.00
2023-04-16T08:53:24.707Z,1.73
2023-04-16T08:55:51.567Z,2.13
2023-04-16T08:58:19.352Z,1.55
2023-04-16T09:00:46.339Z,1.40
2023-04-16T09:03:13.317Z,1.70
2023-04-16T09:05:41.884Z,1.98
2023-04-16T09:08:08.861Z,1.20
2023-04-16T09:10:35.724Z,1.10
2023-04-16T09:13:02.589Z,1.83
2023-04-16T21:04:59.471Z,7.65
2023-04-16T21:07:26.351Z,6.88
2023-04-16T21:09:53.217Z,5.00
2023-04-16T21:12:20.089Z,10.82
